sensor_id;sensor_type;location;lat;lon;timestamp;P1;durP1;ratioP1;P2;durP2;ratioP2
39176;SDS011;24904;52.208;21.192;2023-04-02T00:00:47;8.70;;;5.30;;
39176;SDS011;24904;52.208;21.192;2023-04-02T00:06:31;8.00;;;5.50;;
39176;SDS011;24904;52.208;21.192;2023-04-02T00:11:41;10.50;;;5.70;;
39176;SDS011;24904;52.208;21.192;2023-04-02T00:16:49;10.80;;;5.90;;
39176;SDS011;24904;52.208;21.192;2023-04-02T00:21:56;12.90;;;7.10;;
39176;SDS011;24904;52.208;21.192;2023-04-02T00:27:04;11.10;;;7.40;;
39176;SDS011;24904;52.208;21.192;2023-04-02T00:32:16;11.30;;;6.80;;
39176;SDS011;24904;52.208;21.192;2023-04-02T00:37:26;10.80;;;7.30;;
39176;SDS011;24904;52.208;21.192;2023-04-02T00:42:39;13.50;;;7.50;;
39176;SDS011;24904;52.208;21.192;2023-04-02T00:47:45;9.90;;;6.10;;
39176;SDS011;24904;52.208;21.192;2023-04-02T00:52:50;9.20;;;6.50;;
39176;SDS011;24904;52.208;21.192;2023-04-02T00:57:59;11.60;;;7.20;;
39176;SDS011;24904;52.208;21.192;2023-04-02T01:14:08;9.20;;;5.60;;
39176;SDS011;24904;52.208;21.192;2023-04-02T01:19:31;8.30;;;6.10;;
39176;SDS011;24904;52.208;21.192;2023-04-02T01:24:54;7.80;;;5.30;;
39176;SDS011;24904;52.208;21.192;2023-04-02T01:30:00;8.90;;;5.90;;
39176;SDS011;24904;52.208;21.192;2023-04-02T01:35:09;7.80;;;5.30;;
39176;SDS011;24904;52.208;21.192;2023-04-02T01:40:18;9.40;;;5.90;;
39176;SDS011;24904;52.208;21.192;2023-04-02T01:45:33;10.80;;;5.60;;
39176;SDS011;24904;52.208;21.192;2023-04-02T01:50:39;8.20;;;5.00;;
39176;SDS011;24904;52.208;21.192;2023-04-02T01:55:47;9.30;;;5.70;;
39176;SDS011;24904;52.208;21.192;2023-04-02T02:00:56;8.40;;;5.40;;
39176;SDS011;24904;52.208;21.192;2023-04-02T02:06:06;10.50;;;5.50;;
39176;SDS011;24904;52.208;21.192;2023-04-02T02:11:14;6.50;;;4.90;;
39176;SDS011;24904;52.208;21.192;2023-04-02T02:16:22;7.90;;;5.30;;
39176;SDS011;24904;52.208;21.192;2023-04-02T02:22:08;8.60;;;5.10;;
39176;SDS011;24904;52.208;21.192;2023-04-02T02:27:38;9.10;;;5.80;;
39176;SDS011;24904;52.208;21.192;2023-04-02T02:32:50;9.00;;;5.70;;
39176;SDS011;24904;52.208;21.192;2023-04-02T02:38:16;6.80;;;5.10;;
39176;SDS011;24904;52.208;21.192;2023-04-02T02:43:32;7.50;;;4.70;;
39176;SDS011;24904;52.208;21.192;2023-04-02T02:48:39;8.40;;;5.30;;
39176;SDS011;24904;52.208;21.192;2023-04-02T02:53:47;7.90;;;5.60;;
39176;SDS011;24904;52.208;21.192;2023-04-02T02:58:53;7.30;;;5.30;;
39176;SDS011;24904;52.208;21.192;2023-04-02T03:04:02;8.30;;;5.80;;
39176;SDS011;24904;52.208;21.192;2023-04-02T03:09:09;6.30;;;4.40;;
39176;SDS011;24904;52.208;21.192;2023-04-02T03:14:20;7.00;;;4.90;;
39176;SDS011;24904;52.208;21.192;2023-04-02T03:19:32;7.50;;;5.20;;
39176;SDS011;24904;52.208;21.192;2023-04-02T03:24:43;8.60;;;5.60;;
39176;SDS011;24904;52.208;21.192;2023-04-02T03:29:59;7.50;;;4.50;;
39176;SDS011;24904;52.208;21.192;2023-04-02T03:35:17;7.40;;;4.70;;
39176;SDS011;24904;52.208;21.192;2023-04-02T03:40:27;7.50;;;5.10;;
39176;SDS011;24904;52.208;21.192;2023-04-02T03:45:34;5.20;;;4.10;;
39176;SDS011;24904;52.208;21.192;2023-04-02T03:50:43;6.90;;;5.10;;
39176;SDS011;24904;52.208;21.192;2023-04-02T03:55:49;5.60;;;4.20;;
39176;SDS011;24904;52.208;21.192;2023-04-02T04:00:54;6.50;;;4.60;;
39176;SDS011;24904;52.208;21.192;2023-04-02T04:06:04;7.40;;;5.10;;
39176;SDS011;24904;52.208;21.192;2023-04-02T04:11:13;6.90;;;4.60;;
39176;SDS011;24904;52.208;21.192;2023-04-02T04:16:19;6.60;;;4.70;;
39176;SDS011;24904;52.208;21.192;2023-04-02T04:21:27;8.30;;;5.50;;
39176;SDS011;24904;52.208;21.192;2023-04-02T04:26:42;8.00;;;5.60;;
39176;SDS011;24904;52.208;21.192;2023-04-02T04:31:54;8.50;;;6.00;;
39176;SDS011;24904;52.208;21.192;2023-04-02T04:37:03;11.40;;;7.20;;
39176;SDS011;24904;52.208;21.192;2023-04-02T04:42:11;11.70;;;7.20;;
39176;SDS011;24904;52.208;21.192;2023-04-02T04:47:22;11.40;;;7.90;;
39176;SDS011;24904;52.208;21.192;2023-04-02T04:52:32;11.70;;;8.10;;
39176;SDS011;24904;52.208;21.192;2023-04-02T04:57:38;13.60;;;7.70;;
39176;SDS011;24904;52.208;21.192;2023-04-02T05:02:47;12.30;;;8.80;;
39176;SDS011;24904;52.208;21.192;2023-04-02T05:07:57;18.20;;;10.90;;
39176;SDS011;24904;52.208;21.192;2023-04-02T05:13:04;14.10;;;9.20;;
39176;SDS011;24904;52.208;21.192;2023-04-02T05:18:16;17.60;;;11.40;;
39176;SDS011;24904;52.208;21.192;2023-04-02T05:23:24;17.80;;;11.50;;
39176;SDS011;24904;52.208;21.192;2023-04-02T05:28:32;21.60;;;13.50;;
39176;SDS011;24904;52.208;21.192;2023-04-02T05:33:44;19.40;;;12.70;;
39176;SDS011;24904;52.208;21.192;2023-04-02T05:38:49;19.50;;;12.60;;
39176;SDS011;24904;52.208;21.192;2023-04-02T05:49:05;19.40;;;10.20;;
39176;SDS011;24904;52.208;21.192;2023-04-02T05:54:17;17.90;;;11.00;;
39176;SDS011;24904;52.208;21.192;2023-04-02T05:59:30;17.30;;;10.20;;
39176;SDS011;24904;52.208;21.192;2023-04-02T06:04:39;15.90;;;9.40;;
39176;SDS011;24904;52.208;21.192;2023-04-02T06:09:48;15.70;;;9.90;;
39176;SDS011;24904;52.208;21.192;2023-04-02T06:14:55;15.20;;;10.00;;
39176;SDS011;24904;52.208;21.192;2023-04-02T06:20:02;14.90;;;10.20;;
39176;SDS011;24904;52.208;21.192;2023-04-02T06:25:08;18.10;;;10.30;;
39176;SDS011;24904;52.208;21.192;2023-04-02T06:30:20;16.10;;;10.60;;
39176;SDS011;24904;52.208;21.192;2023-04-02T06:35:27;14.80;;;9.40;;
39176;SDS011;24904;52.208;21.192;2023-04-02T06:40:38;14.60;;;9.60;;
39176;SDS011;24904;52.208;21.192;2023-04-02T06:46:12;11.30;;;8.30;;
39176;SDS011;24904;52.208;21.192;2023-04-02T06:56:45;11.20;;;7.50;;
39176;SDS011;24904;52.208;21.192;2023-04-02T07:01:55;11.50;;;7.70;;
39176;SDS011;24904;52.208;21.192;2023-04-02T07:07:04;10.00;;;7.50;;
39176;SDS011;24904;52.208;21.192;2023-04-02T07:12:11;10.40;;;7.40;;
39176;SDS011;24904;52.208;21.192;2023-04-02T07:17:16;10.00;;;6.90;;
39176;SDS011;24904;52.208;21.192;2023-04-02T07:22:20;10.00;;;6.50;;
39176;SDS011;24904;52.208;21.192;2023-04-02T07:27:26;8.60;;;5.60;;
39176;SDS011;24904;52.208;21.192;2023-04-02T07:32:29;10.40;;;6.30;;
39176;SDS011;24904;52.208;21.192;2023-04-02T07:37:32;8.50;;;5.70;;
39176;SDS011;24904;52.208;21.192;2023-04-02T07:42:36;8.60;;;6.00;;
39176;SDS011;24904;52.208;21.192;2023-04-02T07:47:39;7.70;;;5.50;;
39176;SDS011;24904;52.208;21.192;2023-04-02T07:52:42;6.40;;;4.40;;
39176;SDS011;24904;52.208;21.192;2023-04-02T07:57:49;6.20;;;4.30;;
39176;SDS011;24904;52.208;21.192;2023-04-02T08:02:53;7.00;;;5.00;;
39176;SDS011;24904;52.208;21.192;2023-04-02T08:07:56;7.40;;;4.80;;
39176;SDS011;24904;52.208;21.192;2023-04-02T08:12:59;7.40;;;4.80;;
39176;SDS011;24904;52.208;21.192;2023-04-02T08:18:02;6.90;;;5.10;;
39176;SDS011;24904;52.208;21.192;2023-04-02T08:23:07;7.90;;;4.50;;
39176;SDS011;24904;52.208;21.192;2023-04-02T08:28:15;7.40;;;4.40;;
39176;SDS011;24904;52.208;21.192;2023-04-02T08:33:18;8.00;;;5.20;;
39176;SDS011;24904;52.208;21.192;2023-04-02T08:38:21;8.30;;;4.80;;
39176;SDS011;24904;52.208;21.192;2023-04-02T08:43:28;5.80;;;3.90;;
39176;SDS011;24904;52.208;21.192;2023-04-02T08:48:39;6.50;;;4.30;;
39176;SDS011;24904;52.208;21.192;2023-04-02T08:53:48;5.70;;;4.10;;
39176;SDS011;24904;52.208;21.192;2023-04-02T08:58:55;5.60;;;3.60;;
39176;SDS011;24904;52.208;21.192;2023-04-02T09:04:02;6.00;;;3.80;;
39176;SDS011;24904;52.208;21.192;2023-04-02T09:09:14;5.10;;;3.70;;
39176;SDS011;24904;52.208;21.192;2023-04-02T09:14:19;5.60;;;3.70;;
39176;SDS011;24904;52.208;21.192;2023-04-02T09:19:25;8.00;;;3.50;;
39176;SDS011;24904;52.208;21.192;2023-04-02T09:24:36;6.60;;;3.30;;
39176;SDS011;24904;52.208;21.192;2023-04-02T09:29:40;4.40;;;2.90;;
39176;SDS011;24904;52.208;21.192;2023-04-02T09:34:45;4.70;;;3.10;;
39176;SDS011;24904;52.208;21.192;2023-04-02T09:39:48;5.90;;;4.10;;
39176;SDS011;24904;52.208;21.192;2023-04-02T09:44:52;7.60;;;4.00;;
39176;SDS011;24904;52.208;21.192;2023-04-02T09:50:13;5.70;;;3.80;;
39176;SDS011;24904;52.208;21.192;2023-04-02T09:55:28;5.10;;;3.20;;
39176;SDS011;24904;52.208;21.192;2023-04-02T10:00:32;4.30;;;2.70;;
39176;SDS011;24904;52.208;21.192;2023-04-02T10:05:35;4.30;;;2.70;;
39176;SDS011;24904;52.208;21.192;2023-04-02T10:10:38;4.60;;;2.50;;
39176;SDS011;24904;52.208;21.192;2023-04-02T10:15:45;3.70;;;2.60;;
39176;SDS011;24904;52.208;21.192;2023-04-02T10:20:51;6.00;;;2.80;;
39176;SDS011;24904;52.208;21.192;2023-04-02T10:25:58;4.00;;;2.90;;
39176;SDS011;24904;52.208;21.192;2023-04-02T10:31:12;4.90;;;3.30;;
39176;SDS011;24904;52.208;21.192;2023-04-02T10:36:23;6.10;;;3.10;;
39176;SDS011;24904;52.208;21.192;2023-04-02T10:47:59;5.90;;;3.80;;
39176;SDS011;24904;52.208;21.192;2023-04-02T10:58:56;6.30;;;4.00;;
39176;SDS011;24904;52.208;21.192;2023-04-02T11:04:05;6.60;;;3.80;;
39176;SDS011;24904;52.208;21.192;2023-04-02T11:09:18;5.90;;;4.00;;
39176;SDS011;24904;52.208;21.192;2023-04-02T11:14:26;7.00;;;4.90;;
39176;SDS011;24904;52.208;21.192;2023-04-02T11:19:32;8.50;;;5.60;;
39176;SDS011;24904;52.208;21.192;2023-04-02T11:24:38;10.40;;;6.70;;
39176;SDS011;24904;52.208;21.192;2023-04-02T11:29:47;8.60;;;5.60;;
39176;SDS011;24904;52.208;21.192;2023-04-02T11:34:57;9.30;;;6.00;;
39176;SDS011;24904;52.208;21.192;2023-04-02T11:45:52;10.00;;;7.00;;
39176;SDS011;24904;52.208;21.192;2023-04-02T11:58:27;8.20;;;5.80;;
39176;SDS011;24904;52.208;21.192;2023-04-02T12:03:45;9.40;;;6.30;;
39176;SDS011;24904;52.208;21.192;2023-04-02T12:09:04;7.60;;;5.50;;
39176;SDS011;24904;52.208;21.192;2023-04-02T12:19:47;9.40;;;6.20;;
39176;SDS011;24904;52.208;21.192;2023-04-02T12:24:52;10.20;;;6.40;;
39176;SDS011;24904;52.208;21.192;2023-04-02T12:30:11;10.40;;;6.20;;
39176;SDS011;24904;52.208;21.192;2023-04-02T12:35:25;8.30;;;6.00;;
39176;SDS011;24904;52.208;21.192;2023-04-02T12:40:31;8.30;;;6.30;;
39176;SDS011;24904;52.208;21.192;2023-04-02T12:45:34;9.80;;;6.40;;
39176;SDS011;24904;52.208;21.192;2023-04-02T12:50:37;9.10;;;6.10;;
39176;SDS011;24904;52.208;21.192;2023-04-02T12:55:44;10.20;;;5.90;;
39176;SDS011;24904;52.208;21.192;2023-04-02T13:03:36;9.30;;;5.70;;
39176;SDS011;24904;52.208;21.192;2023-04-02T13:08:41;7.70;;;5.80;;
39176;SDS011;24904;52.208;21.192;2023-04-02T13:13:46;7.30;;;4.60;;
39176;SDS011;24904;52.208;21.192;2023-04-02T13:19:06;8.40;;;5.60;;
39176;SDS011;24904;52.208;21.192;2023-04-02T13:24:17;9.10;;;5.40;;
39176;SDS011;24904;52.208;21.192;2023-04-02T13:34:29;7.80;;;4.70;;
39176;SDS011;24904;52.208;21.192;2023-04-02T13:39:34;6.30;;;4.70;;
39176;SDS011;24904;52.208;21.192;2023-04-02T13:44:39;6.10;;;4.30;;
39176;SDS011;24904;52.208;21.192;2023-04-02T13:49:47;8.50;;;4.60;;
39176;SDS011;24904;52.208;21.192;2023-04-02T13:54:52;6.80;;;4.30;;
39176;SDS011;24904;52.208;21.192;2023-04-02T14:00:01;5.90;;;3.70;;
39176;SDS011;24904;52.208;21.192;2023-04-02T14:05:09;5.70;;;3.60;;
39176;SDS011;24904;52.208;21.192;2023-04-02T14:10:27;5.10;;;3.30;;
39176;SDS011;24904;52.208;21.192;2023-04-02T14:15:47;5.20;;;3.50;;
39176;SDS011;24904;52.208;21.192;2023-04-02T14:21:07;5.00;;;3.30;;
39176;SDS011;24904;52.208;21.192;2023-04-02T14:26:23;5.70;;;3.50;;
39176;SDS011;24904;52.208;21.192;2023-04-02T14:31:41;6.20;;;3.90;;
39176;SDS011;24904;52.208;21.192;2023-04-02T14:36:52;6.00;;;3.30;;
39176;SDS011;24904;52.208;21.192;2023-04-02T14:42:08;6.60;;;3.50;;
39176;SDS011;24904;52.208;21.192;2023-04-02T14:47:18;6.70;;;3.70;;
39176;SDS011;24904;52.208;21.192;2023-04-02T14:52:27;5.70;;;3.50;;
39176;SDS011;24904;52.208;21.192;2023-04-02T14:57:37;5.70;;;3.20;;
39176;SDS011;24904;52.208;21.192;2023-04-02T15:02:46;6.00;;;3.80;;
39176;SDS011;24904;52.208;21.192;2023-04-02T15:07:57;5.30;;;3.90;;
39176;SDS011;24904;52.208;21.192;2023-04-02T15:19:57;5.80;;;3.40;;
39176;SDS011;24904;52.208;21.192;2023-04-02T15:25:18;5.40;;;3.80;;
39176;SDS011;24904;52.208;21.192;2023-04-02T15:30:33;8.10;;;4.40;;
39176;SDS011;24904;52.208;21.192;2023-04-02T15:35:40;6.10;;;4.20;;
39176;SDS011;24904;52.208;21.192;2023-04-02T15:40:52;6.40;;;4.60;;
39176;SDS011;24904;52.208;21.192;2023-04-02T16:04:39;8.70;;;4.80;;
39176;SDS011;24904;52.208;21.192;2023-04-02T16:09:56;7.80;;;5.00;;
39176;SDS011;24904;52.208;21.192;2023-04-02T16:15:10;9.60;;;4.70;;
39176;SDS011;24904;52.208;21.192;2023-04-02T16:20:20;8.50;;;4.50;;
39176;SDS011;24904;52.208;21.192;2023-04-02T16:25:29;9.50;;;5.50;;
39176;SDS011;24904;52.208;21.192;2023-04-02T16:30:43;10.20;;;5.40;;
39176;SDS011;24904;52.208;21.192;2023-04-02T16:35:59;8.50;;;5.40;;
39176;SDS011;24904;52.208;21.192;2023-04-02T16:41:18;9.40;;;5.00;;
39176;SDS011;24904;52.208;21.192;2023-04-02T16:46:32;8.20;;;4.50;;
39176;SDS011;24904;52.208;21.192;2023-04-02T16:51:49;8.60;;;5.30;;
39176;SDS011;24904;52.208;21.192;2023-04-02T16:57:08;6.80;;;4.80;;
39176;SDS011;24904;52.208;21.192;2023-04-02T17:02:23;7.60;;;5.20;;
39176;SDS011;24904;52.208;21.192;2023-04-02T17:07:42;8.10;;;5.10;;
39176;SDS011;24904;52.208;21.192;2023-04-02T17:12:55;8.30;;;5.60;;
39176;SDS011;24904;52.208;21.192;2023-04-02T17:18:15;9.90;;;5.10;;
39176;SDS011;24904;52.208;21.192;2023-04-02T17:23:21;7.20;;;4.70;;
39176;SDS011;24904;52.208;21.192;2023-04-02T17:28:31;10.20;;;5.30;;
39176;SDS011;24904;52.208;21.192;2023-04-02T17:33:38;7.60;;;4.80;;
39176;SDS011;24904;52.208;21.192;2023-04-02T17:38:46;10.00;;;5.50;;
39176;SDS011;24904;52.208;21.192;2023-04-02T17:43:58;10.70;;;5.40;;
39176;SDS011;24904;52.208;21.192;2023-04-02T17:49:13;9.80;;;5.40;;
39176;SDS011;24904;52.208;21.192;2023-04-02T17:54:28;10.70;;;5.80;;
39176;SDS011;24904;52.208;21.192;2023-04-02T17:59:49;10.00;;;5.90;;
39176;SDS011;24904;52.208;21.192;2023-04-02T18:05:05;10.10;;;6.10;;
39176;SDS011;24904;52.208;21.192;2023-04-02T18:10:20;9.30;;;5.30;;
39176;SDS011;24904;52.208;21.192;2023-04-02T18:15:35;8.10;;;4.50;;
39176;SDS011;24904;52.208;21.192;2023-04-02T18:20:52;8.10;;;4.20;;
39176;SDS011;24904;52.208;21.192;2023-04-02T18:26:04;6.20;;;3.60;;
39176;SDS011;24904;52.208;21.192;2023-04-02T18:31:17;5.10;;;3.90;;
39176;SDS011;24904;52.208;21.192;2023-04-02T18:36:35;7.70;;;3.90;;
39176;SDS011;24904;52.208;21.192;2023-04-02T18:41:51;8.60;;;3.80;;
39176;SDS011;24904;52.208;21.192;2023-04-02T18:47:04;10.00;;;4.40;;
39176;SDS011;24904;52.208;21.192;2023-04-02T18:52:18;7.70;;;4.00;;
39176;SDS011;24904;52.208;21.192;2023-04-02T18:57:24;7.00;;;3.60;;
39176;SDS011;24904;52.208;21.192;2023-04-02T19:02:39;6.70;;;3.30;;
39176;SDS011;24904;52.208;21.192;2023-04-02T19:07:49;5.20;;;3.30;;
39176;SDS011;24904;52.208;21.192;2023-04-02T19:12:59;5.10;;;2.70;;
39176;SDS011;24904;52.208;21.192;2023-04-02T19:18:09;6.10;;;2.90;;
39176;SDS011;24904;52.208;21.192;2023-04-02T19:23:28;4.50;;;2.80;;
39176;SDS011;24904;52.208;21.192;2023-04-02T19:28:42;4.70;;;2.80;;
39176;SDS011;24904;52.208;21.192;2023-04-02T19:33:55;6.60;;;3.10;;
39176;SDS011;24904;52.208;21.192;2023-04-02T19:39:20;6.50;;;3.30;;
39176;SDS011;24904;52.208;21.192;2023-04-02T19:44:44;6.10;;;3.30;;
39176;SDS011;24904;52.208;21.192;2023-04-02T19:54:56;4.50;;;3.10;;
39176;SDS011;24904;52.208;21.192;2023-04-02T20:00:02;5.50;;;2.70;;
39176;SDS011;24904;52.208;21.192;2023-04-02T20:05:14;4.60;;;2.80;;
39176;SDS011;24904;52.208;21.192;2023-04-02T20:10:19;6.00;;;2.90;;
39176;SDS011;24904;52.208;21.192;2023-04-02T20:15:24;5.70;;;3.30;;
39176;SDS011;24904;52.208;21.192;2023-04-02T20:20:29;6.00;;;3.30;;
39176;SDS011;24904;52.208;21.192;2023-04-02T20:25:34;8.20;;;4.50;;
39176;SDS011;24904;52.208;21.192;2023-04-02T20:30:39;10.50;;;5.20;;
39176;SDS011;24904;52.208;21.192;2023-04-02T20:35:44;10.50;;;5.30;;
39176;SDS011;24904;52.208;21.192;2023-04-02T20:40:51;10.00;;;5.30;;
39176;SDS011;24904;52.208;21.192;2023-04-02T20:45:58;10.90;;;5.50;;
39176;SDS011;24904;52.208;21.192;2023-04-02T20:51:06;15.50;;;7.80;;
39176;SDS011;24904;52.208;21.192;2023-04-02T20:56:15;14.50;;;8.10;;
39176;SDS011;24904;52.208;21.192;2023-04-02T21:01:23;13.80;;;7.30;;
39176;SDS011;24904;52.208;21.192;2023-04-02T21:06:30;11.30;;;6.90;;
39176;SDS011;24904;52.208;21.192;2023-04-02T21:11:37;10.30;;;5.80;;
39176;SDS011;24904;52.208;21.192;2023-04-02T21:16:42;13.40;;;5.80;;
39176;SDS011;24904;52.208;21.192;2023-04-02T21:21:47;11.60;;;5.30;;
39176;SDS011;24904;52.208;21.192;2023-04-02T21:26:52;8.30;;;4.20;;
39176;SDS011;24904;52.208;21.192;2023-04-02T21:31:57;9.40;;;4.00;;
39176;SDS011;24904;52.208;21.192;2023-04-02T21:37:02;7.40;;;3.40;;
39176;SDS011;24904;52.208;21.192;2023-04-02T21:42:08;5.40;;;2.50;;
39176;SDS011;24904;52.208;21.192;2023-04-02T21:47:14;5.30;;;2.40;;
39176;SDS011;24904;52.208;21.192;2023-04-02T21:52:19;3.40;;;1.70;;
39176;SDS011;24904;52.208;21.192;2023-04-02T21:57:24;3.70;;;1.80;;
39176;SDS011;24904;52.208;21.192;2023-04-02T22:02:29;3.40;;;1.90;;
39176;SDS011;24904;52.208;21.192;2023-04-02T22:07:35;4.30;;;1.60;;
39176;SDS011;24904;52.208;21.192;2023-04-02T22:12:40;2.50;;;1.30;;
39176;SDS011;24904;52.208;21.192;2023-04-02T22:17:45;2.50;;;1.50;;
39176;SDS011;24904;52.208;21.192;2023-04-02T22:22:50;4.30;;;1.50;;
39176;SDS011;24904;52.208;21.192;2023-04-02T22:27:55;3.30;;;1.30;;
39176;SDS011;24904;52.208;21.192;2023-04-02T22:33:00;4.50;;;1.60;;
39176;SDS011;24904;52.208;21.192;2023-04-02T22:38:05;2.60;;;1.40;;
39176;SDS011;24904;52.208;21.192;2023-04-02T22:43:11;3.80;;;1.40;;
39176;SDS011;24904;52.208;21.192;2023-04-02T22:48:16;2.80;;;1.40;;
39176;SDS011;24904;52.208;21.192;2023-04-02T22:53:21;5.10;;;1.70;;
39176;SDS011;24904;52.208;21.192;2023-04-02T22:58:27;4.20;;;2.10;;
39176;SDS011;24904;52.208;21.192;2023-04-02T23:03:31;8.10;;;1.40;;
39176;SDS011;24904;52.208;21.192;2023-04-02T23:08:37;3.40;;;1.40;;
39176;SDS011;24904;52.208;21.192;2023-04-02T23:13:45;4.50;;;1.30;;
39176;SDS011;24904;52.208;21.192;2023-04-02T23:18:52;3.90;;;1.70;;
39176;SDS011;24904;52.208;21.192;2023-04-02T23:23:58;1.80;;;1.10;;
39176;SDS011;24904;52.208;21.192;2023-04-02T23:29:03;3.20;;;1.60;;
39176;SDS011;24904;52.208;21.192;2023-04-02T23:34:09;4.30;;;1.60;;
39176;SDS011;24904;52.208;21.192;2023-04-02T23:39:14;6.00;;;1.60;;
39176;SDS011;24904;52.208;21.192;2023-04-02T23:44:20;3.40;;;1.60;;
39176;SDS011;24904;52.208;21.192;2023-04-02T23:49:25;3.80;;;1.60;;
39176;SDS011;24904;52.208;21.192;2023-04-02T23:54:31;4.70;;;1.60;;
39176;SDS011;24904;52.208;21.192;2023-04-02T23:59:36;3.80;;;1.60;;
